Time;durP1;ratioP1;P1;durP2;ratioP2;P2;SDS_P1;SDS_P2;PMS_P1;PMS_P2;Temp;Humidity;BMP_temperature;BMP_pressure;BME280_temperature;BME280_humidity;BME280_pressure;Samples;Min_cycle;Max_cycle;Signal;HPM_P1;HPM_P2
2022/04/25 00:00:16;;;;;;;;;;;;;;;12.11;65.90;97708.16;233543;1217;125760;-59
2022/04/25 00:05:38;;;;;;;;;;;;;;;11.97;66.12;97710.33;233367;1217;125005;-59
2022/04/25 00:10:41;;;;;;;;;;;;;;;11.89;66.02;97702.65;233490;1216;125475;-59
2022/04/25 00:15:44;;;;;;;;;;;;;;;11.84;66.17;97695.41;233418;1217;125155;-60
2022/04/25 00:20:47;;;;;;;;;;;;;;;11.80;66.19;97696.84;233498;1217;125934;-59
2022/04/25 00:25:50;;;;;;;;;;;;;;;11.70;66.20;97696.66;233416;1217;125372;-60
2022/04/25 00:30:53;;;;;;;;;;;;;;;11.54;66.25;97693.58;233350;1217;127244;-60
2022/04/25 00:35:56;;;;;;;;;;;;;;;11.43;66.01;97690.65;233556;1217;126135;-60
2022/04/25 00:40:59;;;;;;;;;;;;;;;11.33;66.52;97693.66;233326;1217;125210;-59
2022/04/25 00:46:02;;;;;;;;;;;;;;;11.24;66.14;97697.86;233401;1219;125815;-59
2022/04/25 00:51:05;;;;;;;;;;;;;;;11.15;66.19;97683.56;233363;1217;125617;-60
2022/04/25 00:56:08;;;;;;;;;;;;;;;11.05;65.86;97693.76;233422;1217;127057;-59
2022/04/25 01:01:14;;;;;;;;;;;;;;;11.00;66.40;97699.55;233396;1217;125896;-59
2022/04/25 01:06:17;;;;;;;;;;;;;;;11.00;66.83;97706.11;232712;1217;125225;-60
2022/04/25 01:11:21;;;;;;;;;;;;;;;10.97;66.63;97708.45;233431;1217;125540;-61
2022/04/25 01:16:24;;;;;;;;;;;;;;;10.92;66.61;97708.56;233534;1217;125543;-60
2022/04/25 01:21:27;;;;;;;;;;;;;;;10.92;66.57;97705.14;233464;1217;127531;-60
2022/04/25 01:31:52;;;;;;;;;;;;;;;10.72;66.36;97703.88;233408;1217;125299;-60
2022/04/25 01:36:56;;;;;;;;;;;;;;;10.66;66.68;97708.79;233351;1217;126521;-59
2022/04/25 01:41:59;;;;;;;;;;;;;;;10.56;66.44;97721.66;233382;1217;125189;-59
2022/04/25 01:47:02;;;;;;;;;;;;;;;10.47;66.68;97723.65;233360;1217;125397;-59
2022/04/25 01:52:14;;;;;;;;;;;;;;;10.39;66.69;97721.17;233525;1217;125273;-59
2022/04/25 01:57:17;;;;;;;;;;;;;;;10.29;66.76;97712.95;233386;1218;125066;-59
2022/04/25 02:02:22;;;;;;;;;;;;;;;10.21;66.73;97714.26;233358;1217;125811;-58
2022/04/25 02:07:26;;;;;;;;;;;;;;;10.13;66.76;97720.75;233384;1217;125760;-58
2022/04/25 02:12:28;;;;;;;;;;;;;;;10.09;66.82;97713.30;233380;1217;126732;-59
2022/04/25 02:17:31;;;;;;;;;;;;;;;10.08;66.83;97711.61;233421;1217;126337;-61
2022/04/25 02:22:35;;;;;;;;;;;;;;;10.10;67.11;97713.04;233481;1217;125168;-59
2022/04/25 02:27:38;;;;;;;;;;;;;;;10.11;67.17;97708.00;233595;1217;125198;-59
2022/04/25 02:32:40;;;;;;;;;;;;;;;10.07;66.66;97711.91;233412;1217;125833;-59
2022/04/25 02:37:43;;;;;;;;;;;;;;;10.02;66.93;97716.69;233421;1217;126249;-60
2022/04/25 02:42:46;;;;;;;;;;;;;;;9.97;66.68;97721.86;233376;1217;125047;-60
2022/04/25 02:47:49;;;;;;;;;;;;;;;9.89;67.00;97735.08;233358;1218;124609;-60
2022/04/25 02:52:53;;;;;;;;;;;;;;;9.84;67.11;97745.79;233282;1217;126808;-60
2022/04/25 02:57:56;;;;;;;;;;;;;;;9.76;66.88;97749.11;233677;1217;125564;-59
2022/04/25 03:02:59;;;;;;;;;;;;;;;9.68;66.97;97755.85;233639;1217;126079;-59
2022/04/25 03:08:03;;;;;;;;;;;;;;;9.64;67.07;97756.95;233596;1217;125198;-62
2022/04/25 03:13:06;;;;;;;;;;;;;;;9.60;67.23;97759.52;233498;1217;126897;-60
2022/04/25 03:18:10;;;;;;;;;;;;;;;9.56;67.33;97759.66;233449;1217;127777;-60
2022/04/25 03:23:14;;;;;;;;;;;;;;;9.61;67.59;97758.91;233422;1217;125650;-61
2022/04/25 03:28:17;;;;;;;;;;;;;;;9.74;67.79;97759.69;233508;1217;127015;-61
2022/04/25 03:33:20;;;;;;;;;;;;;;;9.78;67.34;97763.45;233417;1217;127135;-58
2022/04/25 03:38:23;;;;;;;;;;;;;;;9.78;67.16;97765.36;233298;1218;125893;-59
2022/04/25 03:43:27;;;;;;;;;;;;;;;9.74;67.06;97762.14;233365;1217;124901;-60
2022/04/25 03:48:30;;;;;;;;;;;;;;;9.71;67.14;97755.48;233417;1217;125675;-59
2022/04/25 03:53:33;;;;;;;;;;;;;;;9.70;67.26;97753.63;233546;1217;125913;-61
2022/04/25 03:58:36;;;;;;;;;;;;;;;9.68;67.13;97759.10;233607;1217;125741;-58
2022/04/25 04:03:39;;;;;;;;;;;;;;;9.65;67.47;97763.23;233469;1217;126821;-59
2022/04/25 04:08:41;;;;;;;;;;;;;;;9.64;67.43;97771.23;233585;1217;125724;-60
2022/04/25 04:13:45;;;;;;;;;;;;;;;9.66;67.72;97768.29;233555;1217;125833;-61
2022/04/25 04:18:48;;;;;;;;;;;;;;;9.73;67.89;97766.33;233367;1217;126051;-59
2022/04/25 04:23:51;;;;;;;;;;;;;;;9.84;68.07;97767.56;233463;1217;125904;-58
2022/04/25 04:28:56;;;;;;;;;;;;;;;9.85;68.11;97768.89;233312;1217;125858;-59
2022/04/25 04:33:58;;;;;;;;;;;;;;;9.85;68.21;97781.83;233616;1217;125970;-58
2022/04/25 04:39:01;;;;;;;;;;;;;;;9.89;68.22;97787.00;233557;1217;126294;-60
2022/04/25 04:44:04;;;;;;;;;;;;;;;9.99;68.58;97793.52;233444;1217;126619;-62
2022/04/25 04:49:07;;;;;;;;;;;;;;;10.14;68.63;97797.41;233320;1217;126161;-58
2022/04/25 04:54:10;;;;;;;;;;;;;;;10.27;68.78;97802.41;233424;1217;124949;-58
2022/04/25 04:59:13;;;;;;;;;;;;;;;10.38;68.72;97810.21;233459;1217;125746;-59
2022/04/25 05:04:16;;;;;;;;;;;;;;;10.44;68.56;97813.64;233538;1217;126236;-59
2022/04/25 05:09:19;;;;;;;;;;;;;;;10.52;68.90;97812.67;233167;1220;126048;-61
2022/04/25 05:14:22;;;;;;;;;;;;;;;10.60;68.53;97813.71;233345;1217;126657;-61
2022/04/25 05:19:24;;;;;;;;;;;;;;;10.66;68.80;97815.42;233375;1217;126292;-60
2022/04/25 05:24:27;;;;;;;;;;;;;;;10.70;68.67;97822.15;233352;1217;124679;-58
2022/04/25 05:29:30;;;;;;;;;;;;;;;10.73;68.76;97816.45;233412;1217;125908;-61
2022/04/25 05:34:34;;;;;;;;;;;;;;;10.75;68.85;97822.64;233642;1217;126088;-61
2022/04/25 05:39:37;;;;;;;;;;;;;;;10.79;68.93;97832.96;233426;1217;126127;-62
2022/04/25 05:44:40;;;;;;;;;;;;;;;10.84;69.02;97835.02;233509;1217;126131;-58
2022/04/25 05:55:05;;;;;;;;;;;;;;;11.07;69.20;97847.63;233485;1217;126470;-60
2022/04/25 06:00:09;;;;;;;;;;;;;;;11.25;69.57;97842.05;233710;1217;126825;-59
2022/04/25 06:05:17;;;;;;;;;;;;;;;11.43;69.35;97846.92;233575;1217;126052;-60
2022/04/25 06:10:22;;;;;;;;;;;;;;;11.61;69.26;97847.95;233574;1217;126879;-59
2022/04/25 06:15:25;;;;;;;;;;;;;;;11.74;68.92;97843.42;233545;1217;126771;-62
2022/04/25 06:20:30;;;;;;;;;;;;;;;11.84;69.03;97846.82;233502;1217;125808;-59
2022/04/25 06:25:34;;;;;;;;;;;;;;;11.94;69.00;97848.33;233468;1217;125514;-60
2022/04/25 06:30:37;;;;;;;;;;;;;;;12.06;69.12;97847.58;233437;1216;125406;-59
2022/04/25 06:35:40;;;;;;;;;;;;;;;12.17;68.92;97847.93;233429;1217;125566;-58
2022/04/25 06:40:46;;;;;;;;;;;;;;;12.24;68.97;97846.92;233647;1217;125884;-61
2022/04/25 06:45:49;;;;;;;;;;;;;;;12.37;68.86;97852.55;233511;1217;125096;-61
2022/04/25 06:50:53;;;;;;;;;;;;;;;12.49;69.03;97854.86;233341;1216;126299;-59
2022/04/25 06:55:56;;;;;;;;;;;;;;;12.62;68.97;97859.80;233346;1218;125078;-59
2022/04/25 07:00:59;;;;;;;;;;;;;;;12.71;68.73;97859.30;233503;1217;126170;-59
2022/04/25 07:06:05;;;;;;;;;;;;;;;12.83;68.31;97863.73;233478;1217;127553;-60
2022/04/25 07:11:08;;;;;;;;;;;;;;;12.93;68.53;97863.30;233468;1217;125902;-60
2022/04/25 07:16:12;;;;;;;;;;;;;;;13.03;68.20;97857.11;233571;1217;126664;-60
2022/04/25 07:31:59;;;;;;;;;;;;;;;13.34;68.27;97836.80;233370;1216;127083;-62
2022/04/25 07:37:02;;;;;;;;;;;;;;;13.41;68.10;97824.42;233572;1217;124965;-60
2022/04/25 07:42:05;;;;;;;;;;;;;;;13.52;68.26;97838.52;233404;1217;126778;-61
2022/04/25 07:47:08;;;;;;;;;;;;;;;13.61;68.26;97842.38;233405;1217;127357;-61
2022/04/25 07:52:11;;;;;;;;;;;;;;;13.66;68.39;97841.55;233625;1217;125968;-60
2022/04/25 07:57:15;;;;;;;;;;;;;;;13.80;68.38;97848.09;233442;1217;126359;-61
2022/04/25 08:02:18;;;;;;;;;;;;;;;13.93;68.17;97852.48;233359;1217;126618;-60
2022/04/25 08:07:23;;;;;;;;;;;;;;;14.06;67.93;97855.56;233505;1217;126529;-60
2022/04/25 08:18:00;;;;;;;;;;;;;;;14.20;67.10;97874.95;233492;1216;126323;-60
2022/04/25 08:23:05;;;;;;;;;;;;;;;14.14;66.37;97880.65;233512;1217;126021;-61
2022/04/25 08:28:09;;;;;;;;;;;;;;;14.13;66.57;97883.79;233566;1217;125803;-61
2022/04/25 08:33:12;;;;;;;;;;;;;;;14.06;66.42;97888.20;233348;1217;125602;-59
2022/04/25 08:38:15;;;;;;;;;;;;;;;13.97;66.30;97892.63;233391;1217;125874;-60
2022/04/25 08:43:18;;;;;;;;;;;;;;;13.90;66.22;97898.27;233222;1217;125935;-58
2022/04/25 08:48:21;;;;;;;;;;;;;;;13.82;65.97;97904.73;233130;1217;125493;-60
2022/04/25 08:53:25;;;;;;;;;;;;;;;13.72;65.91;97905.14;233298;1217;124840;-60
2022/04/25 08:58:28;;;;;;;;;;;;;;;13.65;66.17;97901.46;233401;1217;126570;-59
2022/04/25 09:03:31;;;;;;;;;;;;;;;13.61;66.38;97901.69;233296;1217;127833;-60
2022/04/25 09:08:35;;;;;;;;;;;;;;;13.61;66.63;97900.46;233159;1217;125736;-60
2022/04/25 09:13:39;;;;;;;;;;;;;;;13.68;67.04;97901.17;233206;1217;126262;-60
2022/04/25 09:18:51;;;;;;;;;;;;;;;13.83;66.90;97908.55;233345;1217;127078;-60
2022/04/25 09:23:54;;;;;;;;;;;;;;;13.95;66.97;97902.75;233137;1217;125941;-61
2022/04/25 09:28:57;;;;;;;;;;;;;;;14.09;66.67;97910.19;233187;1217;126306;-58
2022/04/25 09:34:16;;;;;;;;;;;;;;;14.27;66.98;97910.95;233238;1217;125659;-58
2022/04/25 09:39:30;;;;;;;;;;;;;;;14.46;66.66;97917.42;233298;1217;128540;-59
2022/04/25 09:44:54;;;;;;;;;;;;;;;14.59;66.12;97916.52;233141;1217;126281;-58
2022/04/25 09:50:01;;;;;;;;;;;;;;;14.68;65.75;97914.73;233047;1217;125264;-59
2022/04/25 09:55:10;;;;;;;;;;;;;;;14.70;65.34;97913.11;233241;1217;125109;-60
2022/04/25 10:00:14;;;;;;;;;;;;;;;14.61;64.63;97917.34;233325;1217;125750;-60
2022/04/25 10:05:19;;;;;;;;;;;;;;;14.52;64.22;97911.52;233258;1217;125233;-61
2022/04/25 10:10:27;;;;;;;;;;;;;;;14.49;64.32;97911.05;233307;1217;128435;-60
2022/04/25 10:15:30;;;;;;;;;;;;;;;14.52;64.30;97909.73;233203;1216;126021;-59
2022/04/25 10:20:36;;;;;;;;;;;;;;;14.54;64.00;97910.02;233204;1217;125721;-60
2022/04/25 10:25:45;;;;;;;;;;;;;;;14.51;63.61;97905.48;233245;1217;127134;-59
2022/04/25 10:30:49;;;;;;;;;;;;;;;14.55;63.58;97911.01;233136;1217;125152;-61
2022/04/25 10:35:52;;;;;;;;;;;;;;;14.56;63.57;97907.40;233147;1217;126179;-61
2022/04/25 10:46:16;;;;;;;;;;;;;;;14.58;63.24;97909.08;233224;1219;125728;-60
2022/04/25 10:51:36;;;;;;;;;;;;;;;14.63;63.26;97914.33;233170;1217;125816;-61
2022/04/25 10:57:00;;;;;;;;;;;;;;;14.72;63.25;97913.50;233163;1217;125311;-60
2022/04/25 11:02:20;;;;;;;;;;;;;;;14.81;62.76;97915.92;233307;1217;126851;-60
2022/04/25 11:07:23;;;;;;;;;;;;;;;14.88;62.78;97912.05;233366;1216;126077;-59
2022/04/25 11:12:45;;;;;;;;;;;;;;;15.00;62.76;97918.58;233347;1217;125436;-61
2022/04/25 11:18:06;;;;;;;;;;;;;;;15.16;62.76;97915.96;233339;1217;125932;-60
2022/04/25 11:23:35;;;;;;;;;;;;;;;15.21;62.04;97917.95;233387;1216;125484;-59
2022/04/25 11:28:54;;;;;;;;;;;;;;;15.24;61.72;97921.46;233337;1217;126407;-61
2022/04/25 11:34:00;;;;;;;;;;;;;;;15.28;61.53;97927.61;233192;1217;125315;-59
2022/04/25 11:44:24;;;;;;;;;;;;;;;16.24;61.98;97931.48;233205;1217;125279;-61
2022/04/25 11:49:28;;;;;;;;;;;;;;;16.68;61.06;97930.84;233277;1217;125242;-59
2022/04/25 11:54:32;;;;;;;;;;;;;;;17.01;60.51;97940.19;233358;1217;125086;-60
2022/04/25 11:59:35;;;;;;;;;;;;;;;17.25;59.95;97935.59;233488;1216;125749;-61
2022/04/25 12:04:39;;;;;;;;;;;;;;;17.28;59.36;97945.17;233329;1216;126016;-61
2022/04/25 12:20:30;;;;;;;;;;;;;;;16.94;58.35;97956.69;233306;1217;125664;-60
2022/04/25 12:25:38;;;;;;;;;;;;;;;16.75;58.04;97958.41;233246;1217;126499;-61
2022/04/25 12:30:44;;;;;;;;;;;;;;;16.66;58.50;97964.63;233135;1217;127612;-60
2022/04/25 12:35:48;;;;;;;;;;;;;;;16.58;58.23;97970.39;233284;1217;125547;-63
2022/04/25 12:40:57;;;;;;;;;;;;;;;16.48;58.35;97969.33;233396;1217;124938;-60
2022/04/25 12:46:00;;;;;;;;;;;;;;;16.41;57.80;97970.62;233652;1217;125775;-61
2022/04/25 12:51:03;;;;;;;;;;;;;;;16.47;58.31;97971.38;233354;1217;125331;-60
2022/04/25 12:56:07;;;;;;;;;;;;;;;16.78;58.19;97972.89;233298;1217;125773;-59
2022/04/25 13:01:11;;;;;;;;;;;;;;;16.87;57.79;97973.05;233359;1216;125447;-61
2022/04/25 13:06:21;;;;;;;;;;;;;;;16.87;57.17;97981.38;233457;1217;126148;-59
2022/04/25 13:11:24;;;;;;;;;;;;;;;16.93;56.70;97982.05;233577;1217;125660;-59
2022/04/25 13:16:27;;;;;;;;;;;;;;;17.25;57.33;97986.23;233396;1217;126978;-56
2022/04/25 13:21:39;;;;;;;;;;;;;;;17.60;57.32;97985.48;233311;1217;125411;-56
2022/04/25 13:26:42;;;;;;;;;;;;;;;17.90;57.40;97993.40;233330;1219;125163;-58
2022/04/25 13:31:44;;;;;;;;;;;;;;;17.87;56.54;97992.23;233425;1217;126166;-59
2022/04/25 13:36:47;;;;;;;;;;;;;;;17.64;56.35;98009.10;233415;1217;125200;-59
2022/04/25 13:41:52;;;;;;;;;;;;;;;17.41;56.37;98005.63;233337;1217;125379;-58
2022/04/25 13:46:55;;;;;;;;;;;;;;;17.36;56.27;98014.23;233496;1217;125311;-59
2022/04/25 13:52:01;;;;;;;;;;;;;;;17.35;56.80;98017.92;233252;1217;125669;-59
2022/04/25 13:57:04;;;;;;;;;;;;;;;17.37;56.68;98018.23;233575;1217;125285;-60
2022/04/25 14:07:30;;;;;;;;;;;;;;;16.84;56.16;98032.63;233454;1217;125398;-59
2022/04/25 14:12:33;;;;;;;;;;;;;;;16.60;56.16;98050.62;233549;1217;127432;-60
2022/04/25 14:17:36;;;;;;;;;;;;;;;16.33;56.64;98068.08;233571;1217;125324;-59
2022/04/25 14:22:39;;;;;;;;;;;;;;;16.08;56.64;98089.23;233263;1217;125381;-60
2022/04/25 14:27:42;;;;;;;;;;;;;;;15.51;56.70;98109.44;233120;1216;125433;-59
2022/04/25 14:32:45;;;;;;;;;;;;;;;14.86;56.68;98107.45;233356;1216;125497;-64
2022/04/25 14:37:47;;;;;;;;;;;;;;;14.28;57.29;98116.84;233287;1217;125829;-60
2022/04/25 14:42:50;;;;;;;;;;;;;;;13.80;57.95;98111.13;233795;1217;125130;-59
2022/04/25 14:47:53;;;;;;;;;;;;;;;13.45;58.48;98105.37;233727;1217;125510;-59
2022/04/25 14:58:18;;;;;;;;;;;;;;;13.24;59.75;98113.13;233774;1216;125674;-59
2022/04/25 15:03:21;;;;;;;;;;;;;;;13.21;60.29;98120.63;233917;1217;125288;-59
2022/04/25 15:11:22;;;;;;;17.70;9.10;;;;;;;13.37;61.02;98126.21;231005;1231;635581;-60
2022/04/25 15:16:26;;;;;;;5.50;2.50;;;;;;;13.46;61.06;98128.79;233277;1221;140055;-60
2022/04/25 15:21:31;;;;;;;5.30;2.90;;;;;;;13.62;61.55;98134.70;233334;1223;138591;-61
2022/04/25 15:26:34;;;;;;;6.60;3.90;;;;;;;13.77;61.71;98142.28;233277;1222;137607;-60
2022/04/25 15:31:37;;;;;;;8.30;5.20;;;;;;;13.90;61.91;98144.45;232862;1223;137863;-59
2022/04/25 15:36:41;;;;;;;8.70;7.70;;;;;;;13.96;62.04;98141.64;233877;1217;139419;-59
2022/04/25 15:41:44;;;;;;;13.70;9.50;;;;;;;13.94;62.04;98140.34;234107;1216;137973;-59
2022/04/25 15:46:47;;;;;;;11.80;10.50;;;;;;;13.88;62.04;98142.50;233916;1217;137809;-59
2022/04/25 15:51:53;;;;;;;13.50;10.70;;;;;;;13.87;62.43;98145.17;233955;1216;140022;-58
2022/04/25 16:02:19;;;;;;;12.20;9.60;;;;;;;13.80;62.56;98148.68;233711;1216;139587;-60
2022/04/25 16:07:22;;;;;;;12.50;9.90;;;;;;;13.77;62.66;98141.55;233981;1216;138468;-58
2022/04/25 16:12:25;;;;;;;11.30;9.90;;;;;;;13.86;62.87;98151.78;233954;1215;138197;-58
2022/04/25 16:17:30;;;;;;;14.90;11.80;;;;;;;13.87;62.85;98147.60;234117;1216;138674;-61
2022/04/25 16:22:33;;;;;;;15.70;12.60;;;;;;;13.87;62.92;98155.10;233940;1216;138696;-58
2022/04/25 16:27:36;;;;;;;15.20;13.60;;;;;;;13.83;63.11;98159.27;233989;1217;138452;-61
2022/04/25 16:32:39;;;;;;;16.90;14.90;;;;;;;13.80;63.07;98168.77;233828;1216;138217;-61
2022/04/25 16:37:43;;;;;;;20.20;15.20;;;;;;;13.73;63.25;98172.25;234014;1217;138740;-61
2022/04/25 16:42:46;;;;;;;22.50;15.00;;;;;;;13.70;63.34;98179.08;233904;1217;138554;-59
2022/04/25 16:47:49;;;;;;;19.90;15.50;;;;;;;13.70;63.42;98176.63;233840;1217;139371;-60
2022/04/25 16:52:55;;;;;;;18.10;15.50;;;;;;;13.78;63.74;98185.05;233872;1217;139662;-58
2022/04/25 16:57:58;;;;;;;58.40;41.60;;;;;;;13.84;63.63;98188.21;234008;1216;138871;-59
2022/04/25 17:03:01;;;;;;;14.60;12.50;;;;;;;13.91;63.34;98199.35;233794;1216;139263;-62
2022/04/25 17:08:05;;;;;;;15.10;12.70;;;;;;;13.91;62.81;98205.59;233718;1217;138720;-62
2022/04/25 17:13:08;;;;;;;15.60;12.20;;;;;;;13.84;62.51;98215.97;233971;1216;138676;-61
2022/04/25 17:18:12;;;;;;;15.50;11.20;;;;;;;13.79;62.30;98222.14;234036;1215;139148;-59
2022/04/25 17:23:15;;;;;;;14.10;10.30;;;;;;;13.69;62.00;98224.77;234007;1217;138559;-61
2022/04/25 17:28:18;;;;;;;12.50;9.70;;;;;;;13.53;61.65;98229.10;233908;1217;139007;-59
